createdAt,value
2018-03-04T00:02:06.798Z,92.73
2018-03-04T00:04:34.266Z,81.03
2018-03-04T00:07:01.704Z,100.67
2018-03-04T00:09:29.903Z,95.00
2018-03-04T00:11:57.361Z,82.50
2018-03-04T00:14:24.804Z,83.93
2018-03-04T00:16:52.247Z,82.80
2018-03-04T00:19:20.460Z,98.53
2018-03-04T00:21:47.896Z,91.77
2018-03-04T00:24:15.335Z,88.07
2018-03-04T00:26:43.547Z,86.80
2018-03-04T00:29:11.000Z,85.83
2018-03-04T00:31:38.450Z,90.73
2018-03-04T00:34:05.884Z,89.73
2018-03-04T00:36:34.087Z,87.30
2018-03-04T00:39:01.540Z,87.07
2018-03-04T00:41:28.975Z,77.90
2018-03-04T00:43:56.412Z,93.17
2018-03-04T00:46:24.625Z,83.03
2018-03-04T00:48:52.080Z,78.23
2018-03-04T00:51:19.532Z,78.40
2018-03-04T00:53:46.984Z,86.93
2018-03-04T00:56:14.416Z,91.57
2018-03-04T00:58:42.618Z,94.80
2018-03-04T01:01:10.053Z,96.67
2018-03-04T01:03:38.258Z,82.37
2018-03-04T01:06:05.691Z,88.73
2018-03-04T01:08:33.135Z,76.07
2018-03-04T01:11:01.348Z,83.70
2018-03-04T01:13:28.806Z,81.43
2018-03-04T01:15:56.241Z,91.13
2018-03-04T01:18:23.668Z,78.73
2018-03-04T01:20:51.108Z,75.87
2018-03-04T01:23:18.542Z,88.33
2018-03-04T01:25:45.982Z,93.33
2018-03-04T01:28:13.416Z,90.07
2018-03-04T01:30:40.855Z,87.30
2018-03-04T01:33:09.070Z,86.73
2018-03-04T01:35:36.495Z,78.87
2018-03-04T01:38:04.731Z,96.10
2018-03-04T01:40:32.173Z,85.50
2018-03-04T01:42:59.613Z,79.93
2018-03-04T01:45:27.053Z,78.40
2018-03-04T01:47:55.256Z,75.80
2018-03-04T01:50:22.688Z,85.33
2018-03-04T01:52:50.127Z,78.37
2018-03-04T01:55:18.332Z,80.83
2018-03-04T01:57:45.768Z,87.83
2018-03-04T02:00:13.203Z,92.60
2018-03-04T02:02:41.416Z,90.40
2018-03-04T02:05:08.879Z,91.03
2018-03-04T02:07:36.310Z,83.37
2018-03-04T02:10:04.513Z,88.03
2018-03-04T02:12:31.956Z,89.70
2018-03-04T02:14:59.697Z,86.40
2018-03-04T02:17:27.903Z,90.17
2018-03-04T02:19:55.384Z,141.47
2018-03-04T02:22:22.844Z,103.90
2018-03-04T02:24:50.291Z,86.30
2018-03-04T02:27:17.752Z,95.07
2018-03-04T02:29:45.194Z,93.20
2018-03-04T02:32:12.663Z,102.80
2018-03-04T02:34:40.112Z,99.33
2018-03-04T02:37:07.584Z,97.47
2018-03-04T02:39:35.040Z,84.37
2018-03-04T02:42:02.476Z,94.50
2018-03-04T02:44:29.945Z,87.83
2018-03-04T02:46:57.413Z,103.73
2018-03-04T02:49:24.856Z,94.97
2018-03-04T02:51:52.323Z,101.97
2018-03-04T02:54:19.780Z,88.63
2018-03-04T02:56:47.239Z,91.20
2018-03-04T02:59:14.690Z,83.23
2018-03-04T03:01:42.153Z,101.37
2018-03-04T03:04:09.603Z,80.23
2018-03-04T03:06:37.063Z,98.30
2018-03-04T03:09:04.524Z,95.63
2018-03-04T03:11:32.590Z,94.57
2018-03-04T03:14:00.049Z,96.13
2018-03-04T03:16:27.496Z,93.70
2018-03-04T03:18:54.927Z,101.00
2018-03-04T03:21:22.367Z,89.53
2018-03-04T03:23:50.567Z,99.87
2018-03-04T03:26:18.015Z,102.63
2018-03-04T03:28:45.448Z,108.53
2018-03-04T03:31:13.789Z,104.33
2018-03-04T03:33:41.220Z,93.47
2018-03-04T03:36:08.660Z,103.17
2018-03-04T03:38:36.112Z,106.13
2018-03-04T03:41:04.337Z,89.63
2018-03-04T03:43:31.887Z,97.80
2018-03-04T03:45:59.323Z,110.23
2018-03-04T03:48:26.990Z,104.77
2018-03-04T03:50:54.468Z,96.23
2018-03-04T03:53:21.931Z,109.13
2018-03-04T03:55:49.477Z,102.93
2018-03-04T03:58:16.938Z,108.00
2018-03-04T04:00:44.392Z,104.83
2018-03-04T04:03:11.827Z,95.27
2018-03-04T04:05:39.311Z,101.63
2018-03-04T04:08:06.870Z,97.53
2018-03-04T04:10:34.297Z,99.10
2018-03-04T04:13:01.784Z,106.47
2018-03-04T04:15:29.226Z,100.73
2018-03-04T04:17:56.681Z,101.57
2018-03-04T04:20:24.156Z,100.13
2018-03-04T04:22:51.712Z,99.37
2018-03-04T04:25:19.147Z,97.67
2018-03-04T04:27:46.635Z,101.63
2018-03-04T04:30:14.675Z,93.70
2018-03-04T04:32:42.151Z,107.23
2018-03-04T04:35:09.610Z,90.57
2018-03-04T04:37:37.067Z,118.57
2018-03-04T04:40:04.504Z,98.73
2018-03-04T04:42:31.984Z,102.07
2018-03-04T04:44:59.429Z,101.97
2018-03-04T04:47:26.891Z,113.13
2018-03-04T04:49:54.342Z,100.00
2018-03-04T04:52:21.786Z,111.70
2018-03-04T04:54:49.260Z,104.53
2018-03-04T04:57:16.706Z,103.30
2018-03-04T04:59:44.180Z,122.70
2018-03-04T05:02:11.623Z,124.10
2018-03-04T05:04:39.065Z,119.57
2018-03-04T05:07:07.187Z,114.57
2018-03-04T05:09:34.719Z,100.53
2018-03-04T05:12:02.176Z,92.37
2018-03-04T05:14:29.647Z,108.07
2018-03-04T05:16:57.131Z,108.73
2018-03-04T05:19:24.656Z,100.30
2018-03-04T05:21:52.107Z,106.80
2018-03-04T05:24:19.609Z,105.37
2018-03-04T05:26:47.123Z,109.77
2018-03-04T05:29:14.584Z,109.33
2018-03-04T05:31:42.040Z,104.63
2018-03-04T05:34:09.485Z,120.63
2018-03-04T05:36:37.263Z,113.33
2018-03-04T05:39:04.716Z,106.43
2018-03-04T05:41:32.179Z,107.93
2018-03-04T05:43:59.644Z,113.03
2018-03-04T05:46:27.082Z,110.43
2018-03-04T05:48:54.536Z,137.00
2018-03-04T05:51:21.991Z,114.53
2018-03-04T05:53:49.464Z,122.20
2018-03-04T05:56:16.921Z,122.97
2018-03-04T05:58:44.475Z,124.63
2018-03-04T06:01:11.918Z,107.17
2018-03-04T06:03:39.404Z,135.03
2018-03-04T06:06:06.948Z,113.43
2018-03-04T06:08:34.392Z,124.83
2018-03-04T06:11:01.864Z,137.77
2018-03-04T06:13:29.315Z,134.40
2018-03-04T06:15:56.776Z,134.33
2018-03-04T06:18:24.227Z,146.40
2018-03-04T06:20:51.680Z,129.50
2018-03-04T06:23:19.148Z,138.90
2018-03-04T06:25:46.588Z,123.60
2018-03-04T06:28:14.036Z,138.87
2018-03-04T06:30:41.516Z,148.27
2018-03-04T06:33:08.972Z,143.60
2018-03-04T06:35:36.431Z,124.67
2018-03-04T06:38:03.876Z,150.03
2018-03-04T06:40:31.348Z,144.77
2018-03-04T06:42:58.787Z,172.00
2018-03-04T06:45:26.236Z,140.50
2018-03-04T06:47:53.668Z,138.27
2018-03-04T06:50:21.108Z,151.57
2018-03-04T06:52:49.553Z,157.87
2018-03-04T06:55:17.004Z,139.80
2018-03-04T06:57:44.472Z,151.10
2018-03-04T07:00:12.020Z,138.27
2018-03-04T07:02:39.493Z,157.20
2018-03-04T07:05:07.040Z,151.17
2018-03-04T07:07:34.478Z,144.10
2018-03-04T07:10:01.964Z,146.23
2018-03-04T07:12:29.400Z,143.93
2018-03-04T07:14:56.868Z,161.40
2018-03-04T07:17:24.312Z,154.00
2018-03-04T07:19:51.779Z,138.07
2018-03-04T07:22:19.227Z,163.60
2018-03-04T07:24:46.896Z,151.90
2018-03-04T07:27:14.355Z,138.13
2018-03-04T07:29:41.821Z,170.07
2018-03-04T07:32:09.243Z,140.43
2018-03-04T07:34:36.680Z,143.13
2018-03-04T07:37:04.184Z,147.07
2018-03-04T07:39:32.259Z,155.70
2018-03-04T07:41:59.688Z,130.93
2018-03-04T07:44:27.140Z,131.47
2018-03-04T07:46:54.623Z,141.87
2018-03-04T07:49:22.079Z,132.50
2018-03-04T07:51:49.526Z,145.33
2018-03-04T07:54:16.971Z,136.83
2018-03-04T07:56:44.425Z,139.87
2018-03-04T07:59:11.864Z,129.93
2018-03-04T08:01:39.304Z,108.60
2018-03-04T08:04:07.539Z,113.07
2018-03-04T08:06:34.986Z,116.97
2018-03-04T08:09:02.456Z,146.23
2018-03-04T08:11:29.952Z,116.63
2018-03-04T08:13:57.366Z,116.53
2018-03-04T08:16:24.803Z,116.93
2018-03-04T08:18:52.231Z,110.50
2018-03-04T08:21:19.676Z,119.87
2018-03-04T08:23:47.183Z,126.93
2018-03-04T08:26:26.546Z,117.67
2018-03-04T08:28:54.044Z,120.53
2018-03-04T08:31:21.483Z,117.03
2018-03-04T08:33:49.688Z,108.67
2018-03-04T08:36:17.176Z,121.00
2018-03-04T08:38:44.644Z,116.70
2018-03-04T08:41:12.088Z,112.93
2018-03-04T08:43:39.651Z,114.97
2018-03-04T08:46:07.114Z,110.47
2018-03-04T08:48:34.659Z,128.33
2018-03-04T08:51:02.099Z,113.27
2018-03-04T08:53:29.580Z,131.97
2018-03-04T08:55:57.044Z,110.33
2018-03-04T08:58:24.592Z,123.20
2018-03-04T09:00:52.036Z,110.37
2018-03-04T09:03:19.470Z,131.20
2018-03-04T09:05:46.968Z,128.03
2018-03-04T09:08:14.422Z,122.67
2018-03-04T09:10:41.984Z,134.73
2018-03-04T09:13:09.420Z,120.07
2018-03-04T09:15:36.865Z,133.03
2018-03-04T09:18:04.349Z,125.90
2018-03-04T09:20:31.811Z,141.93
2018-03-04T09:22:59.259Z,136.33
2018-03-04T09:25:26.705Z,128.67
2018-03-04T09:27:54.182Z,129.63
2018-03-04T09:30:21.620Z,137.73
2018-03-04T09:32:49.103Z,148.50
2018-03-04T09:35:16.658Z,138.87
2018-03-04T09:37:44.101Z,130.70
2018-03-04T09:40:11.540Z,156.70
2018-03-04T09:42:39.030Z,144.90
2018-03-04T09:45:06.468Z,124.77
2018-03-04T09:47:33.912Z,154.83
2018-03-04T09:50:01.405Z,154.63
2018-03-04T09:52:28.859Z,175.30
2018-03-04T09:54:56.413Z,155.03
2018-03-04T09:57:23.860Z,146.93
2018-03-04T09:59:51.311Z,154.83
2018-03-04T10:02:18.739Z,174.27
2018-03-04T10:04:46.179Z,168.57
2018-03-04T10:07:14.400Z,167.17
2018-03-04T10:09:41.873Z,157.03
2018-03-04T10:12:09.314Z,130.33
2018-03-04T10:14:36.780Z,151.80
2018-03-04T10:17:04.240Z,135.97
2018-03-04T10:19:31.688Z,153.13
2018-03-04T10:21:59.480Z,136.73
2018-03-04T10:24:27.023Z,154.83
2018-03-04T10:26:54.480Z,143.83
2018-03-04T10:29:21.930Z,148.70
2018-03-04T10:31:49.380Z,142.97
2018-03-04T10:34:16.816Z,146.33
2018-03-04T10:36:44.248Z,149.37
2018-03-04T10:39:12.480Z,140.83
2018-03-04T10:41:40.013Z,126.57
2018-03-04T10:44:07.459Z,138.80
2018-03-04T10:46:34.904Z,127.37
2018-03-04T10:49:02.341Z,147.07
2018-03-04T10:51:30.556Z,118.93
2018-03-04T10:53:58.040Z,122.50
2018-03-04T10:56:25.619Z,133.23
2018-03-04T10:58:53.065Z,134.93
2018-03-04T11:01:35.447Z,124.13
2018-03-04T11:04:02.883Z,124.67
2018-03-04T11:06:31.224Z,128.33
2018-03-04T11:08:58.668Z,120.30
2018-03-04T11:11:26.114Z,128.67
2018-03-04T11:13:53.552Z,116.67
2018-03-04T11:16:20.988Z,121.37
2018-03-04T11:18:48.439Z,121.13
2018-03-04T11:21:15.878Z,136.13
2018-03-04T11:23:44.097Z,124.73
2018-03-04T11:26:11.531Z,133.53
2018-03-04T11:28:38.987Z,121.83
2018-03-04T11:31:07.191Z,126.10
2018-03-04T11:33:34.635Z,130.10
2018-03-04T11:36:02.088Z,128.30
2018-03-04T11:38:29.547Z,122.47
2018-03-04T11:40:57.006Z,115.47
2018-03-04T11:43:24.450Z,116.23
2018-03-04T11:45:51.883Z,110.50
2018-03-04T11:48:20.113Z,100.87
2018-03-04T11:50:47.540Z,99.07
2018-03-04T11:53:14.972Z,92.17
2018-03-04T11:55:43.180Z,75.87
2018-03-04T11:58:10.636Z,92.93
2018-03-04T12:00:38.071Z,107.80
2018-03-04T12:03:05.507Z,287.73
2018-03-04T12:05:33.719Z,115.90
2018-03-04T12:08:01.154Z,99.73
2018-03-04T12:10:28.597Z,92.27
2018-03-04T12:12:56.807Z,97.33
2018-03-04T12:15:24.232Z,95.70
2018-03-04T12:17:52.437Z,100.80
2018-03-04T12:20:19.916Z,93.63
2018-03-04T12:22:47.365Z,96.03
2018-03-04T12:25:14.801Z,91.37
2018-03-04T12:27:42.263Z,102.40
2018-03-04T12:30:09.694Z,84.57
2018-03-04T12:32:37.897Z,86.73
2018-03-04T12:35:05.339Z,81.73
2018-03-04T12:37:32.776Z,87.80
2018-03-04T12:40:03.686Z,83.60
2018-03-04T12:42:31.111Z,80.53
2018-03-04T12:44:58.553Z,88.87
2018-03-04T12:47:25.985Z,91.43
2018-03-04T12:49:54.206Z,77.70
2018-03-04T12:52:21.637Z,95.20
2018-03-04T12:54:49.087Z,84.70
2018-03-04T12:57:16.515Z,86.33
2018-03-04T12:59:44.764Z,84.57
2018-03-04T13:02:12.203Z,67.37
2018-03-04T13:04:39.644Z,70.83
2018-03-04T13:07:07.081Z,80.60
2018-03-04T13:09:35.273Z,79.50
2018-03-04T13:12:02.722Z,73.10
2018-03-04T13:14:30.156Z,84.13
2018-03-04T13:16:58.384Z,80.10
2018-03-04T13:19:25.821Z,84.00
2018-03-04T13:21:53.247Z,73.40
2018-03-04T13:24:21.451Z,81.00
2018-03-04T13:26:48.896Z,82.00
2018-03-04T13:29:16.335Z,81.97
2018-03-04T13:31:44.536Z,77.70
2018-03-04T13:34:11.967Z,74.67
2018-03-04T13:36:40.170Z,79.60
2018-03-04T13:39:07.608Z,73.07
2018-03-04T13:41:35.044Z,74.83
2018-03-04T13:44:03.277Z,81.83
2018-03-04T13:46:30.728Z,120.63
2018-03-04T13:48:58.156Z,76.53
2018-03-04T13:51:25.612Z,79.57
2018-03-04T13:53:53.053Z,73.03
2018-03-04T13:56:21.255Z,72.63
2018-03-04T13:58:48.728Z,76.83
2018-03-04T14:01:16.172Z,81.97
2018-03-04T14:03:43.619Z,63.23
2018-03-04T14:06:11.116Z,77.17
2018-03-04T14:08:38.555Z,69.30
2018-03-04T14:11:06.000Z,67.17
2018-03-04T14:13:33.445Z,74.47
2018-03-04T14:16:00.923Z,76.60
2018-03-04T14:18:28.355Z,75.30
2018-03-04T14:20:55.880Z,69.73
2018-03-04T14:23:23.310Z,74.47
2018-03-04T14:25:50.748Z,62.63
2018-03-04T14:28:18.193Z,66.77
2018-03-04T14:30:45.627Z,63.20
2018-03-04T14:33:13.836Z,64.73
2018-03-04T14:35:41.289Z,62.50
2018-03-04T14:38:08.822Z,61.30
2018-03-04T14:40:36.301Z,68.23
2018-03-04T14:43:03.732Z,62.77
2018-03-04T14:45:31.167Z,60.70
2018-03-04T14:47:58.604Z,65.67
2018-03-04T14:50:26.051Z,54.63
2018-03-04T14:52:53.513Z,55.70
2018-03-04T14:55:20.925Z,69.90
2018-03-04T14:57:48.402Z,50.77
2018-03-04T15:00:15.913Z,49.17
2018-03-04T15:02:43.306Z,49.03
2018-03-04T15:05:10.837Z,48.07
2018-03-04T15:07:39.074Z,48.10
2018-03-04T15:10:06.503Z,54.63
2018-03-04T15:12:33.953Z,59.37
2018-03-04T15:15:01.384Z,47.40
2018-03-04T15:17:29.596Z,50.03
2018-03-04T15:19:57.048Z,50.40
2018-03-04T15:22:24.481Z,44.50
2018-03-04T15:24:51.912Z,55.60
2018-03-04T15:27:20.191Z,50.70
2018-03-04T15:29:48.388Z,59.30
2018-03-04T15:32:15.823Z,57.20
2018-03-04T15:34:44.036Z,53.50
2018-03-04T15:37:11.460Z,59.80
2018-03-04T15:39:39.669Z,45.87
2018-03-04T15:42:07.097Z,57.03
2018-03-04T15:44:35.299Z,55.93
2018-03-04T15:47:02.732Z,55.70
2018-03-04T15:49:30.185Z,61.63
2018-03-04T15:51:58.395Z,56.53
2018-03-04T15:54:25.823Z,61.77
2018-03-04T15:56:53.263Z,59.80
2018-03-04T15:59:21.471Z,56.53
2018-03-04T16:01:48.918Z,58.50
2018-03-04T16:04:16.352Z,66.37
2018-03-04T16:06:44.558Z,61.07
2018-03-04T16:09:11.999Z,69.77
2018-03-04T16:11:39.436Z,96.97
2018-03-04T16:14:07.673Z,102.17
2018-03-04T16:16:35.098Z,86.83
2018-03-04T16:19:02.584Z,65.67
2018-03-04T16:21:30.028Z,66.23
2018-03-04T16:23:57.473Z,71.53
2018-03-04T16:26:24.932Z,64.50
2018-03-04T16:28:52.355Z,72.10
2018-03-04T16:31:20.562Z,65.17
2018-03-04T16:33:48.046Z,65.63
2018-03-04T16:36:15.437Z,62.27
2018-03-04T16:38:43.650Z,67.70
2018-03-04T16:41:11.080Z,72.20
2018-03-04T16:43:38.532Z,70.07
2018-03-04T16:46:06.742Z,79.50
2018-03-04T16:48:34.168Z,72.07
2018-03-04T16:51:02.368Z,64.93
2018-03-04T16:53:29.864Z,84.03
2018-03-04T16:55:57.263Z,98.30
2018-03-04T16:58:24.737Z,67.00
2018-03-04T17:00:52.918Z,67.93
2018-03-04T17:03:20.345Z,74.93
2018-03-04T17:05:48.556Z,74.77
2018-03-04T17:08:15.996Z,69.53
2018-03-04T17:10:43.436Z,71.63
2018-03-04T17:13:10.868Z,71.63
2018-03-04T17:15:39.083Z,65.03
2018-03-04T17:18:06.529Z,69.33
2018-03-04T17:20:33.965Z,68.63
2018-03-04T17:23:02.172Z,67.30
2018-03-04T17:25:29.608Z,71.07
2018-03-04T17:27:57.827Z,72.33
2018-03-04T17:30:25.282Z,68.80
2018-03-04T17:32:52.720Z,64.00
2018-03-04T17:35:20.153Z,70.57
2018-03-04T17:37:48.361Z,66.07
2018-03-04T17:40:15.802Z,64.43
2018-03-04T17:42:43.259Z,61.90
2018-03-04T17:45:10.720Z,58.53
2018-03-04T17:47:38.152Z,62.20
2018-03-04T17:50:06.374Z,56.80
2018-03-04T17:52:33.811Z,62.67
2018-03-04T17:55:01.256Z,108.93
2018-03-04T17:57:28.695Z,143.17
2018-03-04T17:59:56.895Z,84.10
2018-03-04T18:02:24.339Z,70.70
2018-03-04T18:04:51.770Z,66.97
2018-03-04T18:07:19.984Z,66.37
2018-03-04T18:09:47.412Z,68.43
2018-03-04T18:12:15.619Z,63.00
2018-03-04T18:14:43.071Z,58.43
2018-03-04T18:17:10.504Z,64.53
2018-03-04T18:19:37.940Z,61.40
2018-03-04T18:22:06.148Z,58.30
2018-03-04T18:24:33.600Z,56.20
2018-03-04T18:27:01.072Z,65.87
2018-03-04T18:29:28.503Z,60.70
2018-03-04T18:31:55.948Z,54.20
2018-03-04T18:34:24.144Z,62.00
2018-03-04T18:36:51.584Z,63.20
2018-03-04T18:39:19.780Z,66.67
2018-03-04T18:41:47.228Z,68.00
2018-03-04T18:44:14.672Z,68.10
2018-03-04T18:46:42.877Z,64.57
2018-03-04T18:49:10.323Z,60.40
2018-03-04T18:51:37.764Z,63.50
2018-03-04T18:54:05.201Z,68.63
2018-03-04T18:56:33.421Z,92.33
2018-03-04T18:59:00.860Z,72.10
2018-03-04T19:01:28.312Z,74.00
2018-03-04T19:03:56.534Z,68.23
2018-03-04T19:06:23.983Z,67.17
2018-03-04T19:08:51.426Z,70.77
2018-03-04T19:11:18.882Z,73.90
2018-03-04T19:13:46.320Z,88.73
2018-03-04T19:16:13.760Z,88.90
2018-03-04T19:18:41.962Z,72.57
2018-03-04T19:21:09.409Z,67.53
2018-03-04T19:23:36.844Z,63.03
2018-03-04T19:26:05.060Z,55.53
2018-03-04T19:28:32.522Z,55.27
2018-03-04T19:31:00.036Z,66.37
2018-03-04T19:33:27.452Z,70.03
2018-03-04T19:35:54.891Z,62.33
2018-03-04T19:38:22.334Z,70.77
2018-03-04T19:40:49.799Z,68.87
2018-03-04T19:43:17.248Z,55.73
2018-03-04T19:45:44.688Z,56.50
2018-03-04T19:48:12.139Z,59.03
2018-03-04T19:50:40.348Z,57.60
2018-03-04T19:53:08.073Z,50.60
2018-03-04T19:55:36.348Z,56.87
2018-03-04T19:58:04.551Z,50.83
2018-03-04T20:00:31.981Z,54.10
2018-03-04T20:03:00.191Z,54.87
2018-03-04T20:05:27.644Z,55.10
2018-03-04T20:07:55.083Z,55.83
2018-03-04T20:10:22.532Z,60.40
2018-03-04T20:12:50.763Z,46.40
2018-03-04T20:15:18.195Z,51.13
2018-03-04T20:17:45.637Z,47.07
2018-03-04T20:20:13.076Z,51.57
2018-03-04T20:22:40.521Z,48.37
2018-03-04T20:25:08.743Z,58.07
2018-03-04T20:27:36.214Z,49.97
2018-03-04T20:30:03.673Z,57.43
2018-03-04T20:32:31.115Z,56.87
2018-03-04T20:34:58.552Z,49.90
2018-03-04T20:37:25.988Z,52.50
2018-03-04T20:39:53.428Z,57.67
2018-03-04T20:42:21.624Z,62.07
2018-03-04T20:44:49.084Z,60.60
2018-03-04T20:47:16.512Z,58.00
2018-03-04T20:49:44.718Z,54.30
2018-03-04T20:52:12.157Z,53.17
2018-03-04T20:54:40.353Z,53.97
2018-03-04T20:57:07.811Z,52.23
2018-03-04T20:59:35.227Z,48.37
2018-03-04T21:02:03.435Z,46.00
2018-03-04T21:04:30.871Z,53.67
2018-03-04T21:06:59.134Z,47.07
2018-03-04T21:09:26.595Z,55.87
2018-03-04T21:11:54.802Z,51.50
2018-03-04T21:14:22.255Z,47.67
2018-03-04T21:16:50.507Z,52.43
2018-03-04T21:19:18.709Z,79.47
2018-03-04T21:21:46.144Z,61.40
2018-03-04T21:24:14.397Z,56.63
2018-03-04T21:26:41.786Z,53.90
2018-03-04T21:29:09.224Z,52.07
2018-03-04T21:31:37.423Z,57.60
2018-03-04T21:34:04.864Z,54.20
2018-03-04T21:36:33.068Z,51.73
2018-03-04T21:39:00.499Z,40.33
2018-03-04T21:41:28.700Z,44.40
2018-03-04T21:43:56.138Z,42.40
2018-03-04T21:46:23.576Z,43.63
2018-03-04T21:48:51.784Z,45.40
2018-03-04T21:51:19.215Z,47.50
2018-03-04T21:53:47.423Z,44.10
2018-03-04T21:56:14.852Z,45.50
2018-03-04T21:58:42.308Z,51.00
2018-03-04T22:01:09.747Z,53.33
2018-03-04T22:03:37.982Z,47.97
2018-03-04T22:06:05.438Z,46.33
2018-03-04T22:08:32.898Z,43.27
2018-03-04T22:11:00.340Z,35.80
2018-03-04T22:13:27.803Z,41.67
2018-03-04T22:15:55.371Z,45.80
2018-03-04T22:18:22.823Z,41.87
2018-03-04T22:20:50.291Z,42.53
2018-03-04T22:23:17.849Z,45.60
2018-03-04T22:25:45.296Z,37.47
2018-03-04T22:28:12.739Z,34.00
2018-03-04T22:30:40.212Z,42.73
2018-03-04T22:33:07.772Z,43.97
2018-03-04T22:35:35.335Z,39.00
2018-03-04T22:38:02.795Z,36.07
2018-03-04T22:40:30.356Z,36.80
2018-03-04T22:42:57.916Z,42.60
2018-03-04T22:45:25.356Z,37.37
2018-03-04T22:47:52.835Z,43.93
2018-03-04T22:50:20.386Z,39.73
2018-03-04T22:52:47.827Z,44.20
2018-03-04T22:55:15.283Z,38.00
2018-03-04T22:57:42.736Z,42.30
2018-03-04T23:00:10.177Z,44.43
2018-03-04T23:02:37.607Z,38.23
2018-03-04T23:05:05.820Z,42.23
2018-03-04T23:07:33.292Z,45.53
2018-03-04T23:10:00.743Z,40.13
2018-03-04T23:12:28.191Z,38.97
2018-03-04T23:14:55.640Z,44.60
2018-03-04T23:17:23.115Z,42.60
2018-03-04T23:19:50.580Z,48.40
2018-03-04T23:22:18.148Z,58.10
2018-03-04T23:24:45.588Z,43.93
2018-03-04T23:27:13.044Z,40.63
2018-03-04T23:29:40.508Z,41.37
2018-03-04T23:32:07.956Z,44.10
2018-03-04T23:34:35.392Z,45.70
2018-03-04T23:37:02.834Z,43.33
2018-03-04T23:39:31.467Z,48.23
2018-03-04T23:41:58.911Z,36.43
2018-03-04T23:44:26.362Z,45.77
2018-03-04T23:46:53.820Z,44.20
2018-03-04T23:49:21.281Z,44.87
2018-03-04T23:51:48.720Z,40.40
2018-03-04T23:54:16.200Z,43.37
2018-03-04T23:56:43.660Z,50.23
2018-03-04T23:59:11.227Z,40.63
